Time;durP1;ratioP1;P1;durP2;ratioP2;P2;SDS_P1;SDS_P2;PMS_P1;PMS_P2;Temp;Humidity;BMP_temperature;BMP_pressure;BME280_temperature;BME280_humidity;BME280_pressure;Samples;Min_cycle;Max_cycle;Signal;HPM_P1;HPM_P2
2022/09/05 00:03:00;;;;;;;;;;;;;;;16.13;56.46;101740.75;12866968;23;19920;-72
2022/09/05 00:08:27;;;;;;;;;;;;;;;15.98;56.82;101743.53;12868197;23;19924;-74
2022/09/05 00:13:54;;;;;;;;;;;;;;;16.04;56.98;101745.25;12866890;23;19979;-73
2022/09/05 00:19:21;;;;;;;;;;;;;;;15.88;57.88;101744.53;12867185;23;19923;-75
2022/09/05 00:25:14;;;;;;;;;;;;;;;15.86;57.65;101748.91;12866503;23;19919;-74
2022/09/05 00:31:03;;;;;;;;;;;;;;;15.86;57.52;101745.41;12866594;23;19927;-74
2022/09/05 00:36:46;;;;;;;;;;;;;;;15.83;58.07;101748.06;12866272;23;19924;-72
2022/09/05 00:42:10;;;;;;;;;;;;;;;15.71;57.67;101745.56;12866231;23;19919;-70
2022/09/05 00:47:36;;;;;;;;;;;;;;;15.61;57.78;101752.63;12866513;23;19959;-72
2022/09/05 00:53:00;;;;;;;;;;;;;;;15.51;58.28;101732.66;12866129;23;19920;-73
2022/09/05 00:58:39;;;;;;;;;;;;;;;15.50;58.45;101736.13;12867598;23;19920;-73
2022/09/05 01:04:11;;;;;;;;;;;;;;;15.42;58.49;101743.19;12865903;23;20295;-74
2022/09/05 01:09:39;;;;;;;;;;;;;;;15.37;59.05;101737.09;12865883;23;19920;-75
2022/09/05 01:15:09;;;;;;;;;;;;;;;15.27;59.27;101745.91;12865787;23;19928;-77
2022/09/05 01:20:36;;;;;;;;;;;;;;;15.30;59.21;101740.63;12865840;23;19979;-74
2022/09/05 01:26:06;;;;;;;;;;;;;;;15.35;58.27;101738.84;12865902;23;19995;-75
2022/09/05 01:31:36;;;;;;;;;;;;;;;15.20;58.24;101741.59;12865744;23;19920;-76
2022/09/05 01:37:04;;;;;;;;;;;;;;;15.04;59.15;101740.81;12865863;23;19923;-74
2022/09/05 01:42:32;;;;;;;;;;;;;;;15.17;58.72;101746.81;12865887;23;19920;-72
2022/09/05 01:47:59;;;;;;;;;;;;;;;15.19;58.18;101746.78;12866149;23;19920;-72
2022/09/05 01:53:31;;;;;;;;;;;;;;;15.08;59.19;101750.34;12865523;23;20234;-75
2022/09/05 01:58:57;;;;;;;;;;;;;;;15.02;59.45;101754.75;12867860;23;20354;-75
2022/09/05 02:04:37;;;;;;;;;;;;;;;14.98;59.09;101753.91;12869532;23;19991;-75
2022/09/05 02:10:16;;;;;;;;;;;;;;;14.96;59.62;101753.03;12869572;23;20214;-74
2022/09/05 02:15:41;;;;;;;;;;;;;;;14.90;60.14;101746.97;12865206;23;19920;-73
2022/09/05 02:21:26;;;;;;;;;;;;;;;14.78;60.45;101752.28;12869251;23;19924;-71
2022/09/05 02:26:53;;;;;;;;;;;;;;;14.72;60.65;101758.41;12869527;23;19920;-71
2022/09/05 02:32:18;;;;;;;;;;;;;;;14.67;60.98;101764.50;12868900;23;19924;-72
2022/09/05 02:37:42;;;;;;;;;;;;;;;14.53;60.69;101763.72;12868948;23;20287;-74
2022/09/05 02:43:27;;;;;;;;;;;;;;;14.48;60.62;101768.94;12868814;23;19919;-73
2022/09/05 02:49:12;;;;;;;;;;;;;;;14.40;61.57;101756.78;12868437;23;19920;-72
2022/09/05 02:54:54;;;;;;;;;;;;;;;14.31;61.71;101769.88;12868922;23;19924;-72
2022/09/05 03:00:39;;;;;;;;;;;;;;;14.06;62.41;101771.66;12868144;23;19924;-74
2022/09/05 03:06:05;;;;;;;;;;;;;;;14.14;62.11;101767.28;12867912;23;20300;-71
2022/09/05 03:11:45;;;;;;;;;;;;;;;14.12;61.67;101773.34;12868738;23;19928;-72
2022/09/05 03:17:31;;;;;;;;;;;;;;;14.19;61.73;101780.31;12868139;23;19920;-71
2022/09/05 03:23:00;;;;;;;;;;;;;;;14.20;61.78;101779.47;12868103;23;19924;-71
2022/09/05 03:28:39;;;;;;;;;;;;;;;14.07;62.08;101769.88;12867411;23;19924;-73
2022/09/05 03:34:17;;;;;;;;;;;;;;;14.00;62.41;101782.09;12867566;23;20002;-72
2022/09/05 03:39:59;;;;;;;;;;;;;;;13.90;62.77;101780.38;12867673;23;19959;-73
2022/09/05 03:45:51;;;;;;;;;;;;;;;14.00;62.65;101779.47;12867222;23;19920;-72
2022/09/05 03:51:26;;;;;;;;;;;;;;;13.90;62.79;101789.06;12867217;23;19924;-74
2022/09/05 03:57:25;;;;;;;;;;;;;;;13.84;62.99;101798.63;12866934;23;19927;-72
2022/09/05 04:03:14;;;;;;;;;;;;;;;13.75;63.57;101803.88;12867127;23;19920;-72
2022/09/05 04:09:03;;;;;;;;;;;;;;;13.84;63.11;101798.63;12867257;23;20007;-71
2022/09/05 04:14:26;;;;;;;;;;;;;;;13.81;63.12;101804.72;12867122;23;19924;-70
2022/09/05 04:19:52;;;;;;;;;;;;;;;13.82;63.01;101803.84;12866339;23;20227;-71
2022/09/05 04:25:16;;;;;;;;;;;;;;;13.78;63.48;101801.25;12866278;23;20203;-72
2022/09/05 04:30:42;;;;;;;;;;;;;;;13.70;63.87;101816.91;12866608;23;19920;-72
2022/09/05 04:36:14;;;;;;;;;;;;;;;13.72;64.38;101819.50;12866947;23;19943;-70
2022/09/05 04:41:42;;;;;;;;;;;;;;;13.75;64.05;101820.38;12866891;23;19978;-72
2022/09/05 04:47:08;;;;;;;;;;;;;;;13.83;63.73;101823.88;12860551;23;20298;-71
2022/09/05 04:52:43;;;;;;;;;;;;;;;13.86;63.18;101820.38;12858836;23;19975;-71
2022/09/05 04:58:10;;;;;;;;;;;;;;;13.80;64.08;101834.28;12858669;23;19923;-72
2022/09/05 05:03:33;;;;;;;;;;;;;;;13.79;64.56;101840.41;12859140;23;20327;-72
2022/09/05 05:09:19;;;;;;;;;;;;;;;13.77;64.72;101849.97;12858562;23;19924;-71
2022/09/05 05:14:46;;;;;;;;;;;;;;;13.77;64.55;101839.53;12858706;23;19986;-72
2022/09/05 05:20:30;;;;;;;;;;;;;;;13.83;64.97;101838.66;12859040;23;19924;-72
2022/09/05 05:26:04;;;;;;;;;;;;;;;13.86;64.91;101844.75;12857970;23;20298;-71
2022/09/05 05:31:29;;;;;;;;;;;;;;;13.97;64.04;101831.69;12859680;23;19986;-70
2022/09/05 05:36:54;;;;;;;;;;;;;;;14.05;64.32;101827.34;12862819;23;20371;-73
2022/09/05 05:42:21;;;;;;;;;;;;;;;14.10;63.99;101849.09;12862284;23;20371;-73
2022/09/05 05:47:46;;;;;;;;;;;;;;;14.23;63.84;101847.34;12861774;23;19931;-71
2022/09/05 05:53:16;;;;;;;;;;;;;;;14.28;64.73;101846.50;12862247;23;19928;-70
2022/09/05 05:59:15;;;;;;;;;;;;;;;14.38;64.64;101850.84;12862240;23;20289;-71
2022/09/05 06:05:08;;;;;;;;;;;;;;;14.47;64.68;101848.22;12864608;23;19920;-72
2022/09/05 06:10:49;;;;;;;;;;;;;;;14.57;64.25;101852.53;12863234;23;19928;-72
2022/09/05 06:16:41;;;;;;;;;;;;;;;14.68;63.93;101855.13;12862388;23;20370;-71
2022/09/05 06:22:23;;;;;;;;;;;;;;;14.79;64.12;101856.81;12861291;23;19920;-70
2022/09/05 06:28:02;;;;;;;;;;;;;;;14.90;63.48;101860.28;12860973;23;19923;-75
2022/09/05 06:33:45;;;;;;;;;;;;;;;15.00;63.39;101869.81;12861751;23;20583;-72
2022/09/05 06:39:12;;;;;;;;;;;;;;;15.07;63.19;101868.03;12859663;23;22270;-72
2022/09/05 06:44:46;;;;;;;;;;;;;;;15.18;62.93;101868.88;12861552;23;19920;-72
2022/09/05 06:50:10;;;;;;;;;;;;;;;15.24;62.89;101868.84;12861965;23;20339;-71
2022/09/05 06:56:09;;;;;;;;;;;;;;;15.34;62.15;101870.50;12860552;23;19976;-74
2022/09/05 07:01:44;;;;;;;;;;;;;;;15.46;61.00;101894.03;12860855;23;19924;-71
2022/09/05 07:07:25;;;;;;;;;;;;;;;15.59;60.28;101887.88;12860418;23;20549;-76
2022/09/05 07:12:50;;;;;;;;;;;;;;;15.67;60.05;101886.06;12860121;23;19919;-75
2022/09/05 07:18:17;;;;;;;;;;;;;;;15.79;59.64;101890.38;12860027;23;19948;-71
2022/09/05 07:23:44;;;;;;;;;;;;;;;15.87;59.39;101884.19;12860330;23;19979;-70
2022/09/05 07:29:28;;;;;;;;;;;;;;;15.99;58.26;101886.72;12860429;23;19924;-70
2022/09/05 07:34:52;;;;;;;;;;;;;;;16.10;57.56;101887.47;12860553;23;19920;-73
2022/09/05 07:40:14;;;;;;;;;;;;;;;16.24;57.23;101884.75;12862221;23;19943;-74
2022/09/05 07:45:48;;;;;;;;;;;;;;;16.34;57.06;101885.53;12861103;23;19923;-73
2022/09/05 07:51:21;;;;;;;;;;;;;;;16.44;55.72;101887.19;12859517;23;19924;-73
2022/09/05 07:57:05;;;;;;;;;;;;;;;16.57;55.07;101891.44;12859086;23;19927;-71
2022/09/05 08:02:46;;;;;;;;;;;;;;;16.64;54.76;101875.66;12859759;23;19920;-72
2022/09/05 08:08:19;;;;;;;;;;;;;;;16.73;53.75;101891.28;12859234;23;19920;-70
2022/09/05 08:13:46;;;;;;;;;;;;;;;16.84;53.14;101883.31;12859850;23;19920;-66
2022/09/05 08:19:28;;;;;;;;;;;;;;;17.00;52.63;101885.72;12859032;23;19920;-64
2022/09/05 08:24:58;;;;;;;;;;;;;;;17.12;51.65;101884.69;12858654;23;20334;-67
2022/09/05 08:30:19;;;;;;;;;;;;;;;17.23;51.30;101877.56;12859035;23;20006;-63
2022/09/05 08:35:51;;;;;;;;;;;;;;;17.33;51.22;101872.19;12858569;23;19983;-67
2022/09/05 08:41:25;;;;;;;;;;;;;;;17.48;50.23;101872.91;12858835;23;19919;-63
2022/09/05 08:47:11;;;;;;;;;;;;;;;17.63;49.54;101870.03;12858349;23;19924;-64
2022/09/05 08:52:39;;;;;;;;;;;;;;;17.76;49.15;101864.56;12858835;23;19923;-65
2022/09/05 08:58:08;;;;;;;;;;;;;;;17.91;49.06;101859.06;12859247;23;19923;-65
2022/09/05 09:03:30;;;;;;;;;;;;;;;18.07;47.92;101855.31;12858916;23;19923;-63
2022/09/05 09:09:10;;;;;;;;;;;;;;;18.29;47.85;101855.81;12858290;23;19924;-64
2022/09/05 09:14:36;;;;;;;;;;;;;;;18.37;47.18;101848.66;12860448;23;19932;-71
2022/09/05 09:20:09;;;;;;;;;;;;;;;18.47;46.56;101847.63;12860548;23;19932;-75
2022/09/05 09:25:33;;;;;;;;;;;;;;;18.70;47.24;101834.91;12858837;23;19924;-72
2022/09/05 09:30:58;;;;;;;;;;;;;;;18.89;46.13;101828.38;12858900;23;19987;-71
2022/09/05 09:36:26;;;;;;;;;;;;;;;19.12;46.26;101820.84;12858937;23;19924;-74
2022/09/05 09:41:52;;;;;;;;;;;;;;;19.51;45.79;101812.09;12858671;23;20226;-72
2022/09/05 09:47:21;;;;;;;;;;;;;;;20.84;43.80;101813.88;12858816;23;20227;-72
2022/09/05 09:52:55;;;;;;;;;;;;;;;22.53;40.13;101795.09;12865425;23;19947;-74
2022/09/05 09:58:25;;;;;;;;;;;;;;;22.38;40.84;101790.38;12865224;23;19920;-71
2022/09/05 10:03:57;;;;;;;;;;;;;;;22.52;40.45;101786.28;12865369;23;19920;-72
2022/09/05 10:09:47;;;;;;;;;;;;;;;22.63;40.24;101781.50;12865174;23;19920;-69
2022/09/05 10:15:29;;;;;;;;;;;;;;;22.77;39.83;101776.56;12865435;23;19924;-72
2022/09/05 10:21:04;;;;;;;;;;;;;;;22.79;39.20;101776.50;12868064;23;20296;-72
2022/09/05 10:26:53;;;;;;;;;;;;;;;22.96;39.04;101778.50;12868497;23;19995;-72
2022/09/05 10:32:18;;;;;;;;;;;;;;;23.07;39.10;101771.88;12868424;23;20215;-72
2022/09/05 10:38:02;;;;;;;;;;;;;;;23.41;39.02;101769.66;12868974;23;19920;-72
2022/09/05 10:43:31;;;;;;;;;;;;;;;23.64;38.43;101761.59;12868245;23;19948;-71
2022/09/05 10:48:53;;;;;;;;;;;;;;;24.01;38.88;101766.25;12868383;23;19924;-72
2022/09/05 10:54:23;;;;;;;;;;;;;;;24.43;38.66;101761.72;12867918;23;19919;-72
2022/09/05 10:59:55;;;;;;;;;;;;;;;24.87;37.65;101749.06;12868642;23;19940;-71
2022/09/05 11:05:37;;;;;;;;;;;;;;;25.27;36.83;101742.72;12867999;23;19923;-72
2022/09/05 11:11:02;;;;;;;;;;;;;;;25.64;35.45;101740.00;12867833;23;19919;-73
2022/09/05 11:16:26;;;;;;;;;;;;;;;25.87;35.19;101743.19;12867658;23;20255;-74
2022/09/05 11:21:55;;;;;;;;;;;;;;;26.43;34.68;101737.59;12867856;23;20267;-71
2022/09/05 11:27:39;;;;;;;;;;;;;;;26.93;33.72;101724.19;12867703;23;19920;-72
2022/09/05 11:33:11;;;;;;;;;;;;;;;27.05;32.66;101724.38;12867623;23;20239;-71
2022/09/05 11:39:07;;;;;;;;;;;;;;;27.56;32.00;101727.69;12868004;23;19920;-72
2022/09/05 11:44:58;;;;;;;;;;;;;;;28.10;32.01;101722.59;12867111;23;20224;-73
2022/09/05 11:50:31;;;;;;;;;;;;;;;28.40;31.54;101722.53;12867109;23;19928;-77
2022/09/05 11:56:13;;;;;;;;;;;;;;;28.73;30.82;101712.41;12867014;23;19944;-74
2022/09/05 12:01:42;;;;;;;;;;;;;;;29.22;30.21;101708.28;12866973;23;19920;-76
2022/09/05 12:07:07;;;;;;;;;;;;;;;29.37;30.41;101701.91;12866711;23;19920;-73
2022/09/05 12:12:54;;;;;;;;;;;;;;;29.53;30.24;101691.91;12866583;23;19920;-73
2022/09/05 12:18:24;;;;;;;;;;;;;;;29.81;30.07;101698.06;12866696;23;19928;-74
2022/09/05 12:23:50;;;;;;;;;;;;;;;30.03;28.97;101690.31;12866911;23;19944;-75
2022/09/05 12:29:34;;;;;;;;;;;;;;;31.72;27.38;101667.84;12866646;23;19932;-73
2022/09/05 12:35:03;;;;;;;;;;;;;;;33.56;25.34;101647.38;12866507;23;20259;-73
2022/09/05 12:40:51;;;;;;;;;;;;;;;34.52;24.83;101636.09;12866951;23;19927;-72
2022/09/05 12:46:35;;;;;;;;;;;;;;;34.45;24.80;101626.00;12865866;23;19920;-73
2022/09/05 12:52:03;;;;;;;;;;;;;;;34.56;25.25;101639.38;12865475;23;19920;-74
2022/09/05 12:57:27;;;;;;;;;;;;;;;33.25;26.54;101653.63;12865783;23;19920;-71
2022/09/05 13:03:13;;;;;;;;;;;;;;;32.58;27.46;101644.88;12865919;23;19923;-72
2022/09/05 13:09:00;;;;;;;;;;;;;;;31.88;27.78;101646.94;12866409;23;20311;-72
2022/09/05 13:14:23;;;;;;;;;;;;;;;31.38;28.25;101650.81;12865395;23;20214;-72
2022/09/05 13:20:07;;;;;;;;;;;;;;;31.10;28.35;101647.63;12866514;23;19924;-73
2022/09/05 13:25:30;;;;;;;;;;;;;;;30.37;28.62;101636.06;12865672;23;19952;-72
2022/09/05 13:30:54;;;;;;;;;;;;;;;30.02;28.45;101641.22;12865780;23;19924;-72
2022/09/05 13:36:39;;;;;;;;;;;;;;;29.37;28.81;101632.34;12865352;23;19924;-73
2022/09/05 13:42:23;;;;;;;;;;;;;;;28.69;29.42;101617.34;12865685;23;19948;-75
2022/09/05 13:47:59;;;;;;;;;;;;;;;28.11;30.14;101624.66;12865040;23;19991;-75
2022/09/05 13:53:30;;;;;;;;;;;;;;;27.53;30.95;101632.66;12865483;23;19920;-71
2022/09/05 13:59:00;;;;;;;;;;;;;;;26.75;32.28;101631.97;12869152;23;19920;-74
2022/09/05 14:04:44;;;;;;;;;;;;;;;26.55;32.49;101630.41;12869132;23;20006;-73
2022/09/05 14:10:59;;;;;;;;;;;;;;;26.17;32.77;101624.53;12869732;23;19920;-74
2022/09/05 14:16:24;;;;;;;;;;;;;;;26.02;33.04;101629.78;12619102;23;19988;-73
2022/09/05 14:21:47;;;;;;;;;;;;;;;25.82;33.32;101627.31;12844910;23;20254;-73
2022/09/05 14:27:12;;;;;;;;;;;;;;;25.57;33.75;101621.56;12868309;23;19920;-77
2022/09/05 14:32:34;;;;;;;;;;;;;;;25.40;34.52;101618.91;12881830;23;19920;-71
2022/09/05 14:38:00;;;;;;;;;;;;;;;25.14;34.82;101621.03;12868103;23;19939;-67
2022/09/05 14:43:29;;;;;;;;;;;;;;;24.79;35.07;101616.63;12878208;23;20038;-67
2022/09/05 14:48:43;;;;;;;;;;;;;;;24.61;35.58;101617.47;12876718;23;20027;-67
2022/09/05 14:53:54;;;;;;;;;;;;;;;24.56;36.07;101624.78;12868484;23;19974;-65
2022/09/05 14:59:08;;;;;;;;;;;;;;;24.19;36.85;101613.31;12876523;23;19920;-66
2022/09/05 15:04:38;;;;;;;;;;;;;;;23.79;37.17;101612.47;12874468;23;20003;-65
2022/09/05 15:09:47;;;;;;;;;;;;;;;23.36;37.14;101614.38;12873724;23;19999;-66
2022/09/05 15:15:14;;;;;;;;;;;;;;;23.07;37.60;101617.38;12872872;23;20027;-64
2022/09/05 15:20:29;;;;;;;;;;;;;;;22.89;37.88;101618.97;12872590;23;19946;-66
2022/09/05 15:25:41;;;;;;;;;;;;;;;22.77;38.33;101609.75;12872460;23;19950;-67
2022/09/05 15:30:54;;;;;;;;;;;;;;;22.73;38.76;101608.16;12871581;23;20050;-65
2022/09/05 15:35:59;;;;;;;;;;;;;;;22.56;39.57;101610.59;12871735;23;19944;-67
2022/09/05 15:41:09;;;;;;;;;;;;;;;22.41;40.11;101608.53;12867069;23;19943;-67
2022/09/05 15:46:13;;;;;;;;;;;;;;;22.27;40.04;101602.91;12867130;23;20327;-66
2022/09/05 15:51:19;;;;;;;;;;;;;;;22.12;40.76;101603.50;12861048;23;19920;-65
2022/09/05 15:56:25;;;;;;;;;;;;;;;22.03;40.76;101603.84;12859112;23;20002;-70
2022/09/05 16:01:28;;;;;;;;;;;;;;;21.92;40.81;101605.16;12861052;23;19958;-71
2022/09/05 16:06:56;;;;;;;;;;;;;;;21.78;41.29;101605.63;12868406;23;19987;-73
2022/09/05 16:12:27;;;;;;;;;;;;;;;21.64;41.43;101600.81;12869150;23;19962;-70
2022/09/05 16:17:35;;;;;;;;;;;;;;;21.50;42.22;101592.50;12868529;23;19987;-71
2022/09/05 16:23:09;;;;;;;;;;;;;;;21.42;42.45;101598.97;12866693;23;19920;-72
2022/09/05 16:28:35;;;;;;;;;;;;;;;21.22;42.94;101586.47;12874220;23;19995;-73
2022/09/05 16:33:41;;;;;;;;;;;;;;;21.04;43.85;101591.50;12886896;23;19920;-72
2022/09/05 16:38:48;;;;;;;;;;;;;;;20.93;43.84;101590.97;12887455;23;19999;-70
2022/09/05 16:43:54;;;;;;;;;;;;;;;20.87;44.16;101594.69;12886394;23;19919;-70
2022/09/05 16:49:01;;;;;;;;;;;;;;;20.69;44.10;101585.56;12886452;23;20299;-73
2022/09/05 16:54:16;;;;;;;;;;;;;;;20.63;44.48;101588.41;12864943;23;19971;-73
2022/09/05 16:59:20;;;;;;;;;;;;;;;20.50;44.80;101575.66;12881413;23;20002;-72
2022/09/05 17:04:25;;;;;;;;;;;;;;;20.37;44.88;101583.09;12880263;23;19930;-73
2022/09/05 17:09:38;;;;;;;;;;;;;;;20.25;45.98;101583.47;12879534;23;19986;-74
2022/09/05 17:14:42;;;;;;;;;;;;;;;20.18;46.86;101576.66;12879573;23;20058;-73
2022/09/05 17:19:47;;;;;;;;;;;;;;;20.06;47.12;101578.75;12879838;23;20009;-73
2022/09/05 17:25:15;;;;;;;;;;;;;;;19.96;47.47;101585.19;12878569;23;19990;-72
2022/09/05 17:30:57;;;;;;;;;;;;;;;19.82;47.55;101593.50;12861030;23;19970;-71
2022/09/05 17:36:22;;;;;;;;;;;;;;;19.60;48.49;101600.28;12862576;23;19935;-70
2022/09/05 17:41:52;;;;;;;;;;;;;;;19.47;49.34;101599.72;12877276;23;19958;-72
2022/09/05 17:47:04;;;;;;;;;;;;;;;19.32;49.84;101602.78;12864565;23;20259;-70
2022/09/05 17:52:26;;;;;;;;;;;;;;;19.25;50.21;101608.19;12876532;23;19930;-70
2022/09/05 17:57:39;;;;;;;;;;;;;;;19.18;50.89;101614.53;12862794;23;20460;-70
2022/09/05 18:02:52;;;;;;;;;;;;;;;19.13;50.79;101616.41;12876291;23;19951;-71
2022/09/05 18:07:59;;;;;;;;;;;;;;;19.03;51.20;101622.81;12876393;23;19982;-69
2022/09/05 18:13:15;;;;;;;;;;;;;;;19.10;51.15;101617.34;12862613;23;19924;-75
2022/09/05 18:18:35;;;;;;;;;;;;;;;19.16;50.36;101618.94;12862313;23;20000;-74
2022/09/05 18:24:01;;;;;;;;;;;;;;;19.09;51.20;101631.41;12874932;23;19991;-74
2022/09/05 18:29:11;;;;;;;;;;;;;;;19.00;51.82;101626.38;12867339;23;20263;-76
2022/09/05 18:34:34;;;;;;;;;;;;;;;18.90;52.16;101630.13;12872556;23;19935;-74
2022/09/05 18:39:41;;;;;;;;;;;;;;;18.74;52.10;101636.63;12843011;23;19999;-73
2022/09/05 18:44:47;;;;;;;;;;;;;;;18.62;51.64;101634.28;12872365;23;19998;-74
2022/09/05 18:49:52;;;;;;;;;;;;;;;18.58;51.91;101634.41;12861519;23;20555;-76
2022/09/05 18:55:17;;;;;;;;;;;;;;;18.60;52.21;101635.25;12871197;23;20372;-75
2022/09/05 19:00:42;;;;;;;;;;;;;;;18.52;51.76;101629.28;12860289;23;19986;-75
2022/09/05 19:05:51;;;;;;;;;;;;;;;18.51;51.41;101635.44;12869442;23;19943;-74
2022/09/05 19:10:56;;;;;;;;;;;;;;;18.40;51.95;101630.41;12860536;23;19920;-73
2022/09/05 19:16:04;;;;;;;;;;;;;;;18.42;52.00;101626.88;12870307;23;19958;-77
2022/09/05 19:21:28;;;;;;;;;;;;;;;18.36;51.98;101616.44;12868616;23;19994;-73
2022/09/05 19:26:35;;;;;;;;;;;;;;;18.38;52.38;101619.91;12859669;23;19952;-74
2022/09/05 19:31:41;;;;;;;;;;;;;;;18.34;52.22;101626.09;12860340;23;19935;-74
2022/09/05 19:37:06;;;;;;;;;;;;;;;18.31;52.35;101617.41;12868287;23;20410;-73
2022/09/05 19:42:29;;;;;;;;;;;;;;;18.27;52.31;101627.13;12866542;23;19924;-74
2022/09/05 19:47:54;;;;;;;;;;;;;;;18.29;51.75;101622.72;12865391;23;19924;-75
2022/09/05 19:53:12;;;;;;;;;;;;;;;18.14;52.63;101625.69;12864864;23;20009;-73
2022/09/05 19:58:17;;;;;;;;;;;;;;;18.21;51.83;101624.66;12861766;23;19959;-72
2022/09/05 20:03:24;;;;;;;;;;;;;;;18.16;51.97;101634.41;12867170;23;19920;-72
2022/09/05 20:08:29;;;;;;;;;;;;;;;18.03;52.44;101632.06;12862017;23;19966;-75
2022/09/05 20:13:32;;;;;;;;;;;;;;;17.90;52.57;101639.31;12860203;23;19955;-75
2022/09/05 20:18:39;;;;;;;;;;;;;;;17.71;53.11;101645.81;12860352;23;19955;-72
2022/09/05 20:23:43;;;;;;;;;;;;;;;17.63;53.66;101641.59;12859375;23;20078;-72
2022/09/05 20:28:47;;;;;;;;;;;;;;;17.55;53.95;101639.09;12858755;23;19939;-68
2022/09/05 20:33:59;;;;;;;;;;;;;;;17.35;54.68;101635.94;12865117;23;20307;-68
2022/09/05 20:39:06;;;;;;;;;;;;;;;17.21;55.02;101638.81;12865620;23;19939;-67
2022/09/05 20:44:41;;;;;;;;;;;;;;;17.11;55.57;101637.22;12858714;23;19958;-67
2022/09/05 20:49:46;;;;;;;;;;;;;;;17.20;55.00;101638.84;12864048;23;20023;-69
2022/09/05 20:55:14;;;;;;;;;;;;;;;17.06;55.72;101648.69;12859061;23;19986;-67
2022/09/05 21:00:40;;;;;;;;;;;;;;;17.13;54.93;101639.81;12858454;23;20002;-75
2022/09/05 21:06:11;;;;;;;;;;;;;;;17.10;54.64;101645.97;12861103;23;19995;-74
2022/09/05 21:11:14;;;;;;;;;;;;;;;17.11;55.10;101652.97;12884900;23;20002;-72
2022/09/05 21:16:20;;;;;;;;;;;;;;;17.14;54.86;101652.03;12865794;23;19944;-73
2022/09/05 21:21:25;;;;;;;;;;;;;;;17.00;55.00;101664.50;12865777;23;19997;-71
2022/09/05 21:26:32;;;;;;;;;;;;;;;16.97;54.97;101662.81;12880767;23;19995;-72
2022/09/05 21:31:41;;;;;;;;;;;;;;;16.90;55.31;101665.53;12866598;23;19954;-73
2022/09/05 21:36:45;;;;;;;;;;;;;;;16.74;55.78;101669.28;12887012;23;19923;-74
2022/09/05 21:41:55;;;;;;;;;;;;;;;16.64;56.12;101670.28;12865692;23;20417;-75
2022/09/05 21:47:19;;;;;;;;;;;;;;;16.55;55.92;101676.53;12886453;23;20016;-72
2022/09/05 21:52:49;;;;;;;;;;;;;;;16.26;56.51;101682.97;12878603;23;19982;-72
2022/09/05 21:58:12;;;;;;;;;;;;;;;16.38;56.13;101673.22;12859246;23;19995;-71
2022/09/05 22:03:37;;;;;;;;;;;;;;;16.37;55.72;101671.50;12858590;23;19999;-72
2022/09/05 22:08:42;;;;;;;;;;;;;;;16.24;56.37;101669.06;12858712;23;19999;-72
2022/09/05 22:14:06;;;;;;;;;;;;;;;16.15;56.27;101668.25;12859614;23;19924;-70
2022/09/05 22:19:10;;;;;;;;;;;;;;;15.99;56.32;101665.84;12862514;23;19926;-71
2022/09/05 22:24:14;;;;;;;;;;;;;;;15.96;56.90;101663.28;12863784;23;20472;-69
2022/09/05 22:29:17;;;;;;;;;;;;;;;15.97;56.53;101672.84;12863578;23;20019;-70
2022/09/05 22:34:21;;;;;;;;;;;;;;;15.87;56.13;101669.47;12862528;23;19923;-74
2022/09/05 22:39:25;;;;;;;;;;;;;;;15.78;56.18;101669.56;12863205;23;19996;-74
2022/09/05 22:44:40;;;;;;;;;;;;;;;15.82;55.98;101670.41;12878565;23;20366;-72
2022/09/05 22:49:42;;;;;;;;;;;;;;;15.72;56.21;101668.78;12861449;23;19998;-73
2022/09/05 22:54:47;;;;;;;;;;;;;;;15.74;56.60;101662.63;12861327;23;20378;-70
2022/09/05 22:59:50;;;;;;;;;;;;;;;15.69;56.57;101668.78;12861192;23;19998;-74
2022/09/05 23:04:53;;;;;;;;;;;;;;;15.39;57.28;101669.06;12861878;23;20002;-65
2022/09/05 23:09:57;;;;;;;;;;;;;;;15.34;57.69;101665.63;12861182;23;20010;-66
2022/09/05 23:15:00;;;;;;;;;;;;;;;15.30;57.77;101670.00;12861559;23;19931;-66
2022/09/05 23:20:04;;;;;;;;;;;;;;;15.09;58.02;101667.53;12860891;23;20033;-67
2022/09/05 23:25:09;;;;;;;;;;;;;;;15.21;57.72;101667.44;12883864;23;20434;-72
2022/09/05 23:30:12;;;;;;;;;;;;;;;15.29;57.39;101662.16;12763349;23;19944;-73
2022/09/05 23:35:16;;;;;;;;;;;;;;;15.33;57.58;101664.72;12763520;23;20218;-75
2022/09/05 23:40:21;;;;;;;;;;;;;;;15.31;57.97;101671.72;12743838;23;19920;-71
2022/09/05 23:45:25;;;;;;;;;;;;;;;15.15;58.44;101658.78;12743632;23;19924;-70
2022/09/05 23:50:28;;;;;;;;;;;;;;;15.02;58.66;101661.50;12743512;23;19935;-71
2022/09/05 23:55:32;;;;;;;;;;;;;;;15.02;59.14;101671.09;12762851;23;19921;-71
